Time;durP1;ratioP1;P1;durP2;ratioP2;P2;SDS_P1;SDS_P2;PMS_P1;PMS_P2;Temp;Humidity;BMP_temperature;BMP_pressure;BME280_temperature;BME280_humidity;BME280_pressure;Samples;Min_cycle;Max_cycle;Signal;HPM_P1;HPM_P2
2022/09/23 00:01:14;;;;;;;4.10;3.38;;;;;17.50;101642.00;;;;5009721;28;20201;-79
2022/09/23 00:03:46;;;;;;;5.22;3.97;;;;;17.50;101639.00;;;;5009329;28;20641;-80
2022/09/23 00:06:16;;;;;;;4.35;3.67;;;;;17.50;101637.00;;;;5009276;28;20253;-79
2022/09/23 00:08:44;;;;;;;4.13;3.20;;;;;17.50;101638.00;;;;5009572;28;20248;-79
2022/09/23 00:11:14;;;;;;;3.47;2.92;;;;;17.40;101640.00;;;;5008095;28;20260;-79
2022/09/23 00:13:43;;;;;;;4.70;3.00;;;;;17.40;101629.00;;;;5007050;28;20336;-79
2022/09/23 00:16:13;;;;;;;5.10;3.22;;;;;17.40;101636.00;;;;5006010;28;20197;-79
2022/09/23 00:18:41;;;;;;;4.93;3.17;;;;;17.40;101630.00;;;;5007374;28;20686;-80
2022/09/23 00:21:14;;;;;;;4.80;2.85;;;;;17.40;101633.00;;;;5006749;28;20795;-80
2022/09/23 00:23:43;;;;;;;4.00;2.85;;;;;17.40;101630.00;;;;5009209;28;20251;-79
2022/09/23 00:26:14;;;;;;;2.92;2.65;;;;;17.40;101629.00;;;;5008603;28;20204;-79
2022/09/23 00:28:42;;;;;;;4.18;3.40;;;;;17.40;101624.00;;;;5008362;28;20201;-79
2022/09/23 00:31:12;;;;;;;4.60;3.45;;;;;17.40;101624.00;;;;5006343;28;20226;-79
2022/09/23 00:33:40;;;;;;;3.70;3.38;;;;;17.40;101625.00;;;;4989162;28;20271;-80
2022/09/23 00:36:14;;;;;;;4.03;3.50;;;;;17.30;101617.00;;;;5007324;28;20201;-79
2022/09/23 00:38:42;;;;;;;4.00;3.60;;;;;17.30;101619.00;;;;5008881;28;20574;-79
2022/09/23 00:41:10;;;;;;;4.07;3.40;;;;;17.30;101605.00;;;;5008938;28;20293;-80
2022/09/23 00:43:40;;;;;;;4.53;3.80;;;;;17.30;101602.00;;;;5008744;28;20201;-80
2022/09/23 00:46:09;;;;;;;4.47;3.58;;;;;17.30;101601.00;;;;5008994;28;20200;-80
2022/09/23 00:48:40;;;;;;;3.40;3.10;;;;;17.30;101601.00;;;;5001403;28;21026;-79
2022/09/23 00:51:10;;;;;;;6.45;4.10;;;;;17.30;101591.00;;;;5008244;28;20572;-79
2022/09/23 00:53:39;;;;;;;5.32;3.70;;;;;17.30;101590.00;;;;5008802;28;20208;-80
2022/09/23 00:56:10;;;;;;;6.25;3.95;;;;;17.30;101593.00;;;;5008384;28;20263;-79
2022/09/23 00:58:42;;;;;;;4.57;3.45;;;;;17.20;101596.00;;;;5008556;28;20228;-79
2022/09/23 01:01:10;;;;;;;4.75;4.07;;;;;17.30;101595.00;;;;5007797;28;20243;-79
2022/09/23 01:03:38;;;;;;;5.15;3.72;;;;;17.20;101593.00;;;;5008016;28;20299;-80
2022/09/23 01:06:06;;;;;;;4.47;3.88;;;;;17.20;101591.00;;;;4999033;28;20201;-79
2022/09/23 01:08:34;;;;;;;4.47;4.05;;;;;17.20;101586.00;;;;5008317;28;20213;-80
2022/09/23 01:11:14;;;;;;;6.85;4.07;;;;;17.10;101589.00;;;;5008559;28;20228;-79
2022/09/23 01:13:49;;;;;;;4.13;3.72;;;;;17.20;101593.00;;;;5008746;28;20243;-79
2022/09/23 01:16:23;;;;;;;6.43;4.07;;;;;17.10;101591.00;;;;5007839;28;20192;-79
2022/09/23 01:18:59;;;;;;;5.90;3.78;;;;;17.10;101590.00;;;;5007522;28;20611;-80
2022/09/23 01:21:38;;;;;;;5.90;3.72;;;;;17.10;101588.00;;;;5005893;28;20330;-79
2022/09/23 01:24:45;;;;;;;4.60;3.70;;;;;17.00;101582.00;;;;5003797;28;21169;-79
2022/09/23 01:27:27;;;;;;;5.15;4.18;;;;;17.00;101586.00;;;;4992361;28;20637;-79
2022/09/23 01:30:09;;;;;;;4.93;4.00;;;;;17.00;101588.00;;;;5000943;28;20291;-79
2022/09/23 01:32:49;;;;;;;5.93;4.40;;;;;17.00;101583.00;;;;5011604;28;20233;-79
2022/09/23 01:35:25;;;;;;;11.35;4.18;;;;;17.00;101580.00;;;;5010179;28;20244;-79
2022/09/23 01:37:59;;;;;;;4.57;3.78;;;;;17.00;101573.00;;;;5012098;28;20204;-79
2022/09/23 01:40:34;;;;;;;4.72;4.03;;;;;17.00;101566.00;;;;5000719;28;20279;-79
2022/09/23 01:43:09;;;;;;;5.75;3.97;;;;;16.90;101567.00;;;;5008066;28;20312;-79
2022/09/23 01:45:43;;;;;;;6.05;4.40;;;;;17.00;101566.00;;;;5011622;28;20350;-79
2022/09/23 01:48:17;;;;;;;5.35;4.15;;;;;16.90;101568.00;;;;5011495;28;20208;-80
2022/09/23 01:50:58;;;;;;;4.35;3.72;;;;;16.90;101567.00;;;;5010057;28;21023;-79
2022/09/23 01:53:31;;;;;;;5.07;4.07;;;;;16.90;101563.00;;;;5010453;28;20208;-79
2022/09/23 01:56:05;;;;;;;6.00;3.95;;;;;16.90;101566.00;;;;5011473;28;20208;-79
2022/09/23 01:58:40;;;;;;;6.10;4.00;;;;;16.90;101560.00;;;;5010526;28;20290;-79
2022/09/23 02:01:12;;;;;;;8.63;4.15;;;;;16.90;101568.00;;;;5008613;28;20224;-80
2022/09/23 02:03:46;;;;;;;5.38;4.00;;;;;16.90;101572.00;;;;5011171;28;20225;-80
2022/09/23 02:06:19;;;;;;;4.38;3.97;;;;;16.90;101568.00;;;;5011102;28;20195;-80
2022/09/23 02:08:51;;;;;;;6.57;4.40;;;;;16.90;101565.00;;;;5011197;28;20260;-79
2022/09/23 02:11:20;;;;;;;4.63;4.10;;;;;16.90;101560.00;;;;5009753;28;20716;-80
2022/09/23 02:13:53;;;;;;;7.05;4.43;;;;;16.90;101563.00;;;;4996822;28;20209;-79
2022/09/23 02:16:26;;;;;;;5.53;4.30;;;;;16.80;101554.00;;;;5005463;28;20617;-79
2022/09/23 02:19:01;;;;;;;6.50;4.80;;;;;16.80;101551.00;;;;5011255;28;20255;-79
2022/09/23 02:21:34;;;;;;;5.10;4.35;;;;;16.80;101549.00;;;;5017868;28;20744;-79
2022/09/23 02:24:09;;;;;;;6.43;4.63;;;;;16.80;101546.00;;;;5006394;28;20691;-79
2022/09/23 02:26:46;;;;;;;5.05;4.55;;;;;16.80;101541.00;;;;5003892;28;20744;-80
2022/09/23 02:29:20;;;;;;;4.85;4.03;;;;;16.80;101545.00;;;;5010485;28;20200;-79
2022/09/23 02:31:56;;;;;;;7.25;4.72;;;;;16.80;101534.00;;;;5009050;28;20229;-80
2022/09/23 02:34:38;;;;;;;5.57;4.40;;;;;16.80;101539.00;;;;5008709;28;20189;-80
2022/09/23 02:37:16;;;;;;;6.05;4.45;;;;;16.80;101535.00;;;;5010507;28;20208;-79
2022/09/23 02:40:00;;;;;;;7.30;5.32;;;;;16.70;101525.00;;;;5008129;28;20211;-80
2022/09/23 02:42:38;;;;;;;6.35;4.60;;;;;16.80;101523.00;;;;5010541;28;20917;-79
2022/09/23 02:45:06;;;;;;;6.70;5.50;;;;;16.80;101523.00;;;;5010117;28;20224;-79
2022/09/23 02:47:39;;;;;;;6.15;5.00;;;;;16.80;101517.00;;;;4999187;28;20691;-79
2022/09/23 02:50:10;;;;;;;7.43;4.93;;;;;16.80;101516.00;;;;4994398;28;20255;-80
2022/09/23 02:52:38;;;;;;;6.78;5.00;;;;;16.80;101510.00;;;;5009922;28;20320;-79
2022/09/23 02:55:06;;;;;;;5.93;5.30;;;;;16.80;101510.00;;;;5008618;28;20252;-79
2022/09/23 02:57:34;;;;;;;5.63;5.05;;;;;16.80;101506.00;;;;5010231;28;20201;-79
2022/09/23 03:00:02;;;;;;;7.18;5.22;;;;;16.80;101507.00;;;;5009310;28;20256;-79
2022/09/23 03:02:49;;;;;;;8.80;5.35;;;;;16.70;101509.00;;;;5010445;28;20296;-79
2022/09/23 03:05:24;;;;;;;5.90;4.72;;;;;16.70;101505.00;;;;4992557;28;20304;-79
2022/09/23 03:08:17;;;;;;;6.70;5.28;;;;;16.70;101510.00;;;;4991194;28;20232;-79
2022/09/23 03:10:55;;;;;;;8.68;5.40;;;;;16.70;101508.00;;;;4999301;28;20201;-78
2022/09/23 03:13:31;;;;;;;6.30;4.93;;;;;16.70;101503.00;;;;5010233;28;20275;-80
2022/09/23 03:16:05;;;;;;;7.68;5.45;;;;;16.70;101496.00;;;;5009842;28;20296;-80
2022/09/23 03:18:41;;;;;;;5.78;4.78;;;;;16.70;101506.00;;;;5007180;28;20259;-80
2022/09/23 03:21:16;;;;;;;7.43;5.88;;;;;16.70;101493.00;;;;4992625;28;20214;-80
2022/09/23 03:23:45;;;;;;;7.82;5.72;;;;;16.70;101500.00;;;;4995574;28;20220;-80
2022/09/23 03:26:17;;;;;;;7.72;5.13;;;;;16.60;101501.00;;;;5010035;28;20625;-80
2022/09/23 03:28:46;;;;;;;6.38;4.85;;;;;16.70;101503.00;;;;5008276;28;20220;-79
2022/09/23 03:31:15;;;;;;;5.13;4.25;;;;;16.70;101494.00;;;;5007518;28;20193;-77
2022/09/23 03:33:47;;;;;;;6.50;5.28;;;;;16.60;101490.00;;;;5004827;28;20194;-78
2022/09/23 03:39:10;;;;;;;6.53;5.20;;;;;16.60;101497.00;;;;4993261;28;20753;-78
2022/09/23 03:41:42;;;;;;;8.10;5.63;;;;;16.60;101502.00;;;;5001668;28;20201;-80
2022/09/23 03:44:09;;;;;;;6.53;5.40;;;;;16.60;101497.00;;;;4990170;28;20206;-78
2022/09/23 03:46:37;;;;;;;8.73;6.05;;;;;16.60;101489.00;;;;4999097;28;20212;-77
2022/09/23 03:49:12;;;;;;;6.20;5.32;;;;;16.50;101486.00;;;;5005936;28;20671;-78
2022/09/23 03:51:41;;;;;;;6.10;5.30;;;;;16.60;101491.00;;;;5006485;28;20231;-78
2022/09/23 03:54:08;;;;;;;8.95;4.95;;;;;16.60;101487.00;;;;5008878;28;20219;-79
2022/09/23 03:56:36;;;;;;;6.93;5.97;;;;;16.60;101480.00;;;;4999068;28;20197;-79
2022/09/23 03:59:03;;;;;;;6.05;5.47;;;;;16.60;101480.00;;;;5008063;28;20283;-78
2022/09/23 04:01:31;;;;;;;6.57;4.88;;;;;16.60;101481.00;;;;5011072;28;20196;-78
2022/09/23 04:03:58;;;;;;;6.20;5.60;;;;;16.60;101472.00;;;;5009625;28;20252;-78
2022/09/23 04:06:26;;;;;;;6.32;5.53;;;;;16.60;101470.00;;;;5008375;28;20201;-78
2022/09/23 04:08:54;;;;;;;6.43;5.57;;;;;16.60;101460.00;;;;5008058;28;20212;-78
2022/09/23 04:11:22;;;;;;;6.32;5.10;;;;;16.60;101471.00;;;;5007896;28;20223;-78
2022/09/23 04:13:49;;;;;;;6.85;5.95;;;;;16.60;101468.00;;;;4990639;28;20204;-78
2022/09/23 04:16:16;;;;;;;6.60;5.90;;;;;16.60;101464.00;;;;4999596;28;20211;-78
2022/09/23 04:18:44;;;;;;;6.13;5.50;;;;;16.60;101472.00;;;;5008041;28;20200;-78
2022/09/23 04:21:11;;;;;;;6.93;5.47;;;;;16.60;101476.00;;;;5012009;28;20209;-78
2022/09/23 04:23:38;;;;;;;7.20;6.15;;;;;16.60;101471.00;;;;5006432;28;20205;-78
2022/09/23 04:26:07;;;;;;;6.60;5.95;;;;;16.50;101464.00;;;;5006522;28;20213;-79
2022/09/23 04:28:35;;;;;;;9.00;6.03;;;;;16.60;101472.00;;;;5003265;28;20198;-79
2022/09/23 04:31:04;;;;;;;6.53;5.72;;;;;16.50;101466.00;;;;5007856;28;20596;-78
2022/09/23 04:33:32;;;;;;;5.97;5.35;;;;;16.60;101467.00;;;;5007083;28;20232;-78
2022/09/23 04:36:00;;;;;;;6.68;6.07;;;;;16.60;101457.00;;;;5006208;28;20209;-78
2022/09/23 04:38:27;;;;;;;6.88;6.03;;;;;16.60;101457.00;;;;5005730;28;20200;-79
2022/09/23 04:40:55;;;;;;;6.80;6.15;;;;;16.60;101457.00;;;;5006307;28;20201;-78
2022/09/23 04:43:24;;;;;;;7.93;5.97;;;;;16.50;101453.00;;;;5020898;28;20292;-79
2022/09/23 04:45:59;;;;;;;6.55;5.80;;;;;16.50;101455.00;;;;5006686;28;20201;-78
2022/09/23 04:48:26;;;;;;;8.15;6.13;;;;;16.60;101465.00;;;;5007585;28;20246;-79
2022/09/23 04:50:54;;;;;;;7.82;6.70;;;;;16.60;101464.00;;;;5007456;28;20589;-79
2022/09/23 04:53:21;;;;;;;7.78;6.15;;;;;16.60;101460.00;;;;5006232;28;20229;-78
2022/09/23 04:55:51;;;;;;;6.93;6.10;;;;;16.60;101460.00;;;;5004571;28;20209;-79
2022/09/23 04:58:19;;;;;;;7.00;6.03;;;;;16.60;101458.00;;;;5006486;28;20573;-79
2022/09/23 05:00:48;;;;;;;8.90;6.18;;;;;16.60;101460.00;;;;5006834;28;20196;-79
2022/09/23 05:03:15;;;;;;;8.00;6.53;;;;;16.60;101457.00;;;;5008679;28;20621;-78
2022/09/23 05:05:43;;;;;;;10.50;6.45;;;;;16.60;101456.00;;;;5014547;28;20212;-79
2022/09/23 05:08:10;;;;;;;7.18;6.32;;;;;16.60;101451.00;;;;4997099;28;20197;-79
2022/09/23 05:10:37;;;;;;;6.32;5.72;;;;;16.60;101447.00;;;;5007348;28;20212;-79
2022/09/23 05:13:05;;;;;;;6.88;6.05;;;;;16.60;101450.00;;;;5010290;28;20228;-78
2022/09/23 05:15:32;;;;;;;6.90;5.82;;;;;16.70;101459.00;;;;5010657;28;20209;-79
2022/09/23 05:18:03;;;;;;;7.43;6.20;;;;;16.60;101452.00;;;;5010992;28;20208;-79
2022/09/23 05:20:31;;;;;;;6.70;6.00;;;;;16.70;101453.00;;;;5010041;28;20212;-79
2022/09/23 05:22:58;;;;;;;9.02;5.97;;;;;16.70;101451.00;;;;5022804;28;20200;-78
2022/09/23 05:25:26;;;;;;;6.68;6.05;;;;;16.70;101453.00;;;;5038098;28;20567;-79
2022/09/23 05:27:53;;;;;;;6.45;5.75;;;;;16.70;101448.00;;;;5015241;28;20197;-79
2022/09/23 05:30:20;;;;;;;7.57;6.28;;;;;16.70;101446.00;;;;5019500;28;20212;-79
2022/09/23 05:32:50;;;;;;;7.93;6.20;;;;;16.70;101458.00;;;;5022117;28;20216;-78
2022/09/23 05:35:19;;;;;;;10.82;9.38;;;;;16.70;101453.00;;;;5017576;28;20462;-79
2022/09/23 05:37:47;;;;;;;8.40;6.88;;;;;16.80;101452.00;;;;5007104;28;20208;-79
2022/09/23 05:40:14;;;;;;;7.40;6.38;;;;;16.80;101455.00;;;;5019449;28;20202;-78
2022/09/23 05:42:42;;;;;;;9.45;6.70;;;;;16.80;101452.00;;;;5027997;28;20188;-78
2022/09/23 05:45:10;;;;;;;6.10;5.50;;;;;16.90;101456.00;;;;5041721;28;20215;-78
2022/09/23 05:47:37;;;;;;;7.72;6.07;;;;;16.90;101458.00;;;;5014693;28;20204;-79
2022/09/23 05:50:05;;;;;;;8.15;6.07;;;;;16.90;101459.00;;;;5005075;28;20197;-78
2022/09/23 05:52:35;;;;;;;7.80;6.57;;;;;16.90;101455.00;;;;5008355;28;20221;-80
2022/09/23 05:55:02;;;;;;;9.13;6.45;;;;;16.90;101464.00;;;;4991849;28;20244;-79
2022/09/23 05:57:29;;;;;;;6.53;5.88;;;;;16.90;101462.00;;;;5004792;28;20254;-79
2022/09/23 05:59:56;;;;;;;6.75;6.00;;;;;16.90;101464.00;;;;5006033;28;20869;-78
2022/09/23 06:02:24;;;;;;;6.68;6.00;;;;;16.90;101457.00;;;;5006508;28;20197;-77
2022/09/23 06:04:51;;;;;;;7.35;5.70;;;;;16.90;101460.00;;;;5009756;28;20204;-79
2022/09/23 06:07:18;;;;;;;7.32;5.82;;;;;16.90;101468.00;;;;5007539;28;20200;-78
2022/09/23 06:09:47;;;;;;;7.28;6.18;;;;;16.90;101460.00;;;;5007863;28;20227;-79
2022/09/23 06:12:14;;;;;;;10.05;6.45;;;;;17.00;101464.00;;;;4993346;28;20210;-80
2022/09/23 06:14:41;;;;;;;7.25;6.28;;;;;17.00;101460.00;;;;5004802;28;20200;-79
2022/09/23 06:17:10;;;;;;;7.63;6.00;;;;;17.00;101462.00;;;;5010571;28;20201;-79
2022/09/23 06:19:37;;;;;;;7.15;6.45;;;;;17.00;101459.00;;;;5009903;28;20201;-79
2022/09/23 06:22:04;;;;;;;7.38;6.57;;;;;17.00;101467.00;;;;5010448;28;20209;-78
2022/09/23 06:24:32;;;;;;;7.28;5.82;;;;;17.00;101460.00;;;;5009775;28;20205;-80
2022/09/23 06:27:01;;;;;;;7.18;6.47;;;;;17.00;101453.00;;;;5010453;28;20197;-79
2022/09/23 06:29:29;;;;;;;6.78;6.07;;;;;17.00;101460.00;;;;5008408;28;20193;-81
2022/09/23 06:31:58;;;;;;;8.93;7.10;;;;;17.10;101454.00;;;;5006825;28;21921;-81
2022/09/23 06:34:25;;;;;;;9.10;6.13;;;;;17.10;101461.00;;;;5007582;28;20306;-81
2022/09/23 06:36:54;;;;;;;6.70;6.10;;;;;17.10;101454.00;;;;5012207;28;20208;-80
2022/09/23 06:39:21;;;;;;;9.93;7.28;;;;;17.10;101458.00;;;;5023167;28;20269;-79
2022/09/23 06:41:49;;;;;;;8.25;6.57;;;;;17.10;101452.00;;;;5024365;28;20204;-79
2022/09/23 06:44:17;;;;;;;7.43;6.55;;;;;17.10;101456.00;;;;5024194;28;20204;-80
2022/09/23 06:46:44;;;;;;;7.68;6.30;;;;;17.20;101456.00;;;;5024165;28;20654;-80
2022/09/23 06:49:12;;;;;;;7.03;5.63;;;;;17.20;101463.00;;;;5022998;28;20197;-79
2022/09/23 06:51:39;;;;;;;10.18;5.80;;;;;17.20;101457.00;;;;5020584;28;20211;-79
2022/09/23 06:54:07;;;;;;;7.72;6.68;;;;;17.20;101456.00;;;;5008660;28;20236;-80
2022/09/23 06:56:34;;;;;;;7.82;6.63;;;;;17.30;101456.00;;;;5009043;28;20189;-81
2022/09/23 06:59:02;;;;;;;7.95;5.80;;;;;17.30;101449.00;;;;5006377;28;20228;-81
2022/09/23 07:01:30;;;;;;;7.93;6.43;;;;;17.30;101454.00;;;;5002399;28;20213;-81
2022/09/23 07:03:58;;;;;;;7.68;6.35;;;;;17.40;101464.00;;;;5003578;28;20209;-80
2022/09/23 07:06:25;;;;;;;8.32;7.43;;;;;17.40;101455.00;;;;5009612;28;20197;-81
2022/09/23 07:08:53;;;;;;;7.85;6.70;;;;;17.40;101455.00;;;;5008114;28;20589;-81
2022/09/23 07:11:21;;;;;;;9.20;7.50;;;;;17.50;101455.00;;;;5012548;28;20192;-82
2022/09/23 07:13:48;;;;;;;8.57;7.22;;;;;17.50;101448.00;;;;5005894;28;20786;-80
2022/09/23 07:16:16;;;;;;;7.32;6.63;;;;;17.60;101445.00;;;;5009165;28;20197;-81
2022/09/23 07:18:44;;;;;;;8.02;6.55;;;;;17.60;101445.00;;;;5007269;28;20200;-80
2022/09/23 07:21:14;;;;;;;8.27;6.72;;;;;17.70;101443.00;;;;5005909;28;20204;-81
2022/09/23 07:23:41;;;;;;;7.45;6.70;;;;;17.80;101444.00;;;;5006529;28;20205;-81
2022/09/23 07:26:08;;;;;;;7.63;6.88;;;;;17.80;101444.00;;;;5007892;28;20192;-80
2022/09/23 07:28:37;;;;;;;8.63;6.70;;;;;17.90;101445.00;;;;5008744;28;20205;-81
2022/09/23 07:31:06;;;;;;;7.13;6.43;;;;;18.00;101445.00;;;;5010995;28;20200;-81
2022/09/23 07:33:35;;;;;;;6.63;5.78;;;;;18.00;101450.00;;;;5006346;28;20332;-81
2022/09/23 07:36:08;;;;;;;10.70;7.45;;;;;18.00;101453.00;;;;5006676;28;20201;-81
2022/09/23 07:38:36;;;;;;;7.50;6.65;;;;;18.10;101460.00;;;;5005818;28;20197;-81
2022/09/23 07:41:05;;;;;;;9.77;6.68;;;;;18.20;101456.00;;;;5005929;28;20213;-81
2022/09/23 07:43:32;;;;;;;8.77;6.63;;;;;18.20;101464.00;;;;5004349;28;20200;-81
2022/09/23 07:46:02;;;;;;;8.85;6.57;;;;;18.30;101471.00;;;;5005011;28;20201;-81
2022/09/23 07:48:29;;;;;;;9.18;6.07;;;;;18.40;101466.00;;;;5003323;28;20311;-81
2022/09/23 07:50:57;;;;;;;9.07;7.20;;;;;18.40;101468.00;;;;5004745;28;20224;-78
2022/09/23 07:53:26;;;;;;;6.72;6.03;;;;;18.50;101464.00;;;;5005762;28;20278;-80
2022/09/23 07:55:55;;;;;;;7.15;6.45;;;;;18.50;101469.00;;;;5004854;28;20205;-80
2022/09/23 07:58:22;;;;;;;7.07;6.38;;;;;18.60;101463.00;;;;5002602;28;20268;-80
2022/09/23 08:00:52;;;;;;;8.20;7.13;;;;;18.60;101462.00;;;;5006683;28;20204;-80
2022/09/23 08:03:20;;;;;;;7.00;6.30;;;;;18.70;101462.00;;;;4995360;28;20299;-79
2022/09/23 08:05:47;;;;;;;10.25;6.35;;;;;18.80;101452.00;;;;5005778;28;20216;-80
2022/09/23 08:08:15;;;;;;;8.82;7.30;;;;;18.80;101459.00;;;;5006170;28;20200;-80
2022/09/23 08:10:44;;;;;;;8.80;6.60;;;;;18.90;101458.00;;;;5002086;28;20609;-80
2022/09/23 08:13:11;;;;;;;8.15;6.63;;;;;19.00;101467.00;;;;5006199;28;20239;-81
2022/09/23 08:15:39;;;;;;;8.55;6.60;;;;;19.10;101464.00;;;;5007843;28;20197;-81
2022/09/23 08:18:06;;;;;;;7.82;6.63;;;;;19.20;101463.00;;;;5009179;28;20201;-81
2022/09/23 08:23:17;;;;;;;8.68;6.70;;;;;19.30;101455.00;;;;5004628;28;20263;-80
2022/09/23 08:25:46;;;;;;;9.70;6.75;;;;;19.40;101460.00;;;;5006869;28;20205;-81
2022/09/23 08:28:15;;;;;;;7.03;5.88;;;;;19.50;101463.00;;;;4995836;28;20201;-81
2022/09/23 08:30:43;;;;;;;7.10;6.43;;;;;19.50;101460.00;;;;5006988;28;20205;-81
2022/09/23 08:33:11;;;;;;;6.68;6.03;;;;;19.60;101456.00;;;;5006287;28;20224;-80
2022/09/23 08:35:38;;;;;;;6.85;6.18;;;;;19.70;101459.00;;;;5006532;28;20228;-80
2022/09/23 08:38:06;;;;;;;8.07;6.00;;;;;19.80;101460.00;;;;5008323;28;20209;-80
2022/09/23 08:40:35;;;;;;;8.25;6.05;;;;;19.80;101463.00;;;;5005219;28;20192;-80
2022/09/23 08:43:06;;;;;;;7.25;6.43;;;;;19.90;101459.00;;;;5008000;28;20201;-80
2022/09/23 08:45:35;;;;;;;7.55;6.85;;;;;20.00;101463.00;;;;5001254;28;20251;-79
2022/09/23 08:48:07;;;;;;;7.30;6.13;;;;;20.10;101458.00;;;;5008646;28;20201;-80
2022/09/23 08:50:41;;;;;;;8.48;6.53;;;;;20.10;101468.00;;;;5007672;28;20513;-81
2022/09/23 08:53:14;;;;;;;7.68;6.20;;;;;20.10;101468.00;;;;5007360;28;20192;-80
2022/09/23 08:55:46;;;;;;;6.80;4.93;;;;;20.20;101470.00;;;;5006046;28;20228;-81
2022/09/23 08:58:35;;;;;;;6.05;5.22;;;;;20.20;101457.00;;;;4998145;28;20232;-81
2022/09/23 09:01:12;;;;;;;7.43;5.07;;;;;20.30;101463.00;;;;5006042;28;20230;-81
2022/09/23 09:03:46;;;;;;;6.30;5.70;;;;;20.40;101467.00;;;;5007407;28;20930;-81
2022/09/23 09:06:18;;;;;;;6.85;6.13;;;;;20.50;101473.00;;;;5002937;28;20205;-80
2022/09/23 09:08:52;;;;;;;6.50;5.60;;;;;20.50;101455.00;;;;5006604;28;20251;-80
2022/09/23 09:11:22;;;;;;;7.95;5.95;;;;;20.60;101461.00;;;;5007421;28;20200;-81
2022/09/23 09:13:57;;;;;;;6.65;5.90;;;;;20.60;101459.00;;;;5006795;28;20291;-81
2022/09/23 09:16:41;;;;;;;5.97;5.47;;;;;20.60;101457.00;;;;5007564;28;20200;-81
2022/09/23 09:19:15;;;;;;;9.00;6.30;;;;;20.70;101459.00;;;;5002983;28;20659;-81
2022/09/23 09:21:46;;;;;;;6.78;5.95;;;;;20.80;101467.00;;;;5008351;28;20250;-80
2022/09/23 09:24:19;;;;;;;5.85;5.13;;;;;20.80;101453.00;;;;5006838;28;20208;-80
2022/09/23 09:26:46;;;;;;;6.30;5.25;;;;;20.90;101454.00;;;;5006864;28;20754;-81
2022/09/23 09:29:19;;;;;;;6.93;5.47;;;;;20.90;101445.00;;;;5005809;28;20213;-81
2022/09/23 09:31:47;;;;;;;7.45;4.80;;;;;21.00;101455.00;;;;5007020;28;20208;-80
2022/09/23 09:34:25;;;;;;;5.93;4.85;;;;;21.00;101453.00;;;;5006513;28;20225;-80
2022/09/23 09:37:00;;;;;;;5.10;4.53;;;;;21.10;101447.00;;;;5006398;28;20217;-80
2022/09/23 09:39:28;;;;;;;5.60;4.80;;;;;21.20;101455.00;;;;5006806;28;20204;-80
2022/09/23 09:41:59;;;;;;;7.25;4.90;;;;;21.20;101456.00;;;;5006454;28;20201;-80
2022/09/23 09:44:34;;;;;;;4.82;4.35;;;;;21.20;101450.00;;;;5010493;28;20209;-80
2022/09/23 09:47:25;;;;;;;6.65;5.05;;;;;21.20;101447.00;;;;5009896;28;20263;-80
2022/09/23 09:49:57;;;;;;;5.82;5.18;;;;;21.30;101448.00;;;;5009712;28;20219;-80
2022/09/23 09:52:28;;;;;;;7.00;5.13;;;;;21.40;101445.00;;;;5000683;28;20659;-80
2022/09/23 09:55:14;;;;;;;6.20;4.40;;;;;21.50;101440.00;;;;5004391;28;20235;-80
2022/09/23 09:57:44;;;;;;;7.15;4.57;;;;;21.50;101441.00;;;;5010327;28;20204;-78
2022/09/23 10:00:37;;;;;;;6.00;4.97;;;;;21.50;101440.00;;;;5008801;28;20220;-80
2022/09/23 10:03:25;;;;;;;5.35;4.85;;;;;21.70;101434.00;;;;5005457;28;20263;-79
2022/09/23 10:05:56;;;;;;;6.65;4.70;;;;;21.70;101443.00;;;;5010509;28;20659;-80
2022/09/23 10:08:28;;;;;;;5.55;4.72;;;;;21.80;101440.00;;;;5007105;28;20197;-80
2022/09/23 10:11:02;;;;;;;5.70;4.63;;;;;21.80;101438.00;;;;5001787;28;20205;-80
2022/09/23 10:13:30;;;;;;;6.47;5.25;;;;;21.90;101435.00;;;;5009538;28;20192;-80
2022/09/23 10:16:02;;;;;;;7.25;4.53;;;;;22.00;101431.00;;;;5008325;28;20204;-80
2022/09/23 10:18:32;;;;;;;4.57;4.18;;;;;22.10;101425.00;;;;5008811;28;20204;-80
2022/09/23 10:21:12;;;;;;;5.03;4.43;;;;;22.10;101416.00;;;;5010302;28;20647;-81
2022/09/23 10:23:42;;;;;;;5.38;4.88;;;;;22.30;101417.00;;;;5010100;28;20223;-81
2022/09/23 10:26:11;;;;;;;6.78;4.30;;;;;22.30;101415.00;;;;5004408;28;20197;-81
2022/09/23 10:28:46;;;;;;;7.72;4.15;;;;;22.40;101418.00;;;;5007105;28;20204;-82
2022/09/23 10:31:16;;;;;;;5.65;4.30;;;;;22.50;101417.00;;;;5007937;28;20251;-81
2022/09/23 10:33:49;;;;;;;5.50;4.38;;;;;22.50;101417.00;;;;5010260;28;20225;-81
2022/09/23 10:36:18;;;;;;;4.70;3.65;;;;;22.60;101417.00;;;;5009396;28;20193;-81
2022/09/23 10:38:48;;;;;;;4.40;3.65;;;;;22.70;101419.00;;;;5009265;28;20201;-81
2022/09/23 10:47:27;;;;;;;3.97;3.47;;;;;22.70;101420.00;;;;5017743;28;20285;-82
2022/09/23 10:50:22;;;;;;;5.07;4.00;;;;;22.80;101420.00;;;;5015475;28;20219;-82
2022/09/23 10:53:02;;;;;;;3.58;3.20;;;;;22.80;101418.00;;;;5008061;28;20205;-82
2022/09/23 10:55:40;;;;;;;3.85;3.25;;;;;22.80;101412.00;;;;5005308;28;20235;-83
2022/09/23 10:58:27;;;;;;;4.80;3.03;;;;;22.80;101411.00;;;;5007323;28;20686;-82
2022/09/23 11:01:08;;;;;;;5.65;3.38;;;;;22.80;101410.00;;;;5007411;28;20204;-83
2022/09/23 11:04:09;;;;;;;4.30;3.33;;;;;22.80;101418.00;;;;5006878;28;20217;-83
2022/09/23 11:06:50;;;;;;;3.17;2.78;;;;;22.90;101413.00;;;;5005240;28;20247;-83
2022/09/23 11:09:29;;;;;;;3.25;2.95;;;;;22.90;101413.00;;;;5007541;28;20243;-82
2022/09/23 11:12:07;;;;;;;4.90;2.80;;;;;23.00;101412.00;;;;5000260;28;20212;-82
2022/09/23 11:14:57;;;;;;;3.47;2.97;;;;;23.00;101418.00;;;;5005995;28;20662;-83
2022/09/23 11:17:38;;;;;;;3.45;2.65;;;;;23.10;101407.00;;;;4998718;28;20210;-82
2022/09/23 11:20:36;;;;;;;2.72;2.45;;;;;23.00;101413.00;;;;5001249;28;20205;-81
2022/09/23 11:23:27;;;;;;;3.20;2.92;;;;;23.10;101410.00;;;;4993494;28;20323;-79
2022/09/23 11:26:06;;;;;;;3.70;2.90;;;;;23.20;101416.00;;;;5003639;28;20209;-79
2022/09/23 11:29:12;;;;;;;4.00;2.70;;;;;23.10;101411.00;;;;5005749;28;20588;-80
2022/09/23 11:31:46;;;;;;;3.25;2.47;;;;;23.20;101415.00;;;;5007197;28;20686;-80
2022/09/23 11:34:30;;;;;;;3.83;2.70;;;;;23.20;101403.00;;;;5003113;28;20622;-82
2022/09/23 11:37:04;;;;;;;3.78;2.88;;;;;23.30;101401.00;;;;5004058;28;20264;-82
2022/09/23 11:39:36;;;;;;;2.97;2.35;;;;;23.40;101408.00;;;;5003000;28;20288;-80
2022/09/23 11:42:08;;;;;;;3.13;2.80;;;;;23.40;101398.00;;;;5005998;28;20267;-80
2022/09/23 11:44:40;;;;;;;4.20;2.47;;;;;23.40;101396.00;;;;5004630;28;20208;-80
2022/09/23 11:47:11;;;;;;;4.65;2.97;;;;;23.50;101395.00;;;;5007103;28;20209;-80
2022/09/23 11:49:43;;;;;;;3.22;2.92;;;;;23.60;101385.00;;;;5004371;28;22115;-80
2022/09/23 11:52:18;;;;;;;4.22;2.47;;;;;23.70;101401.00;;;;5005165;28;20204;-80
2022/09/23 11:54:51;;;;;;;4.72;3.15;;;;;23.80;101399.00;;;;5002171;28;20231;-80
2022/09/23 11:57:26;;;;;;;3.38;2.80;;;;;23.80;101393.00;;;;5000892;28;20208;-79
2022/09/23 12:00:00;;;;;;;4.05;2.50;;;;;23.90;101391.00;;;;4990117;28;20241;-79
2022/09/23 12:02:33;;;;;;;2.72;2.03;;;;;24.00;101396.00;;;;4989663;28;20205;-79
2022/09/23 12:05:05;;;;;;;2.42;2.05;;;;;24.10;101389.00;;;;5005936;28;20197;-79
2022/09/23 12:07:48;;;;;;;3.00;2.20;;;;;24.00;101381.00;;;;5004021;28;20209;-79
2022/09/23 12:10:17;;;;;;;2.78;2.30;;;;;24.20;101377.00;;;;4988259;28;20197;-80
2022/09/23 12:12:54;;;;;;;2.08;1.80;;;;;24.20;101385.00;;;;5006187;28;20569;-78
2022/09/23 12:15:35;;;;;;;2.35;2.15;;;;;24.10;101381.00;;;;5008356;28;20552;-78
2022/09/23 12:18:29;;;;;;;3.47;2.33;;;;;24.10;101381.00;;;;5004948;28;20205;-77
2022/09/23 12:21:32;;;;;;;2.72;1.85;;;;;24.10;101374.00;;;;4989124;28;20201;-78
2022/09/23 12:24:20;;;;;;;3.75;1.92;;;;;24.10;101376.00;;;;4999493;28;20199;-78
2022/09/23 12:26:55;;;;;;;2.25;2.05;;;;;24.10;101366.00;;;;4988773;28;20212;-79
2022/09/23 12:29:30;;;;;;;1.88;1.45;;;;;24.10;101369.00;;;;4997581;28;20208;-79
2022/09/23 12:31:58;;;;;;;4.47;1.88;;;;;24.10;101365.00;;;;5006070;28;20674;-78
2022/09/23 12:34:30;;;;;;;2.35;1.60;;;;;24.10;101363.00;;;;5001566;28;20777;-79
2022/09/23 12:37:02;;;;;;;2.38;1.63;;;;;24.10;101359.00;;;;5007482;28;20280;-81
2022/09/23 12:39:36;;;;;;;2.15;1.52;;;;;24.10;101359.00;;;;5003995;28;20651;-79
2022/09/23 12:42:05;;;;;;;2.45;1.70;;;;;24.10;101347.00;;;;4994631;28;20197;-79
2022/09/23 12:44:36;;;;;;;4.28;2.05;;;;;24.10;101351.00;;;;5004297;28;20212;-79